sensor_id;sensor_type;location;lat;lon;timestamp;pressure;altitude;pressure_sealevel;temperature;humidity
44481;BME280;30184;42.018;23.670;2023-03-26T00:02:06;90889.66;;;5.63;83.89
44481;BME280;30184;42.018;23.670;2023-03-26T00:04:36;90874.00;;;5.58;84.13
44481;BME280;30184;42.018;23.670;2023-03-26T00:07:06;90881.44;;;5.51;84.25
44481;BME280;30184;42.018;23.670;2023-03-26T00:09:37;90882.22;;;5.51;84.19
44481;BME280;30184;42.018;23.670;2023-03-26T00:12:06;90900.22;;;5.35;84.00
44481;BME280;30184;42.018;23.670;2023-03-26T00:14:35;90901.59;;;5.43;83.82
44481;BME280;30184;42.018;23.670;2023-03-26T00:17:05;90878.06;;;5.47;84.28
44481;BME280;30184;42.018;23.670;2023-03-26T00:19:35;90885.03;;;5.44;84.40
44481;BME280;30184;42.018;23.670;2023-03-26T00:22:04;90881.66;;;5.40;84.38
44481;BME280;30184;42.018;23.670;2023-03-26T00:24:35;90886.28;;;5.40;84.44
44481;BME280;30184;42.018;23.670;2023-03-26T00:27:05;90888.63;;;5.38;84.62
44481;BME280;30184;42.018;23.670;2023-03-26T00:29:35;90887.88;;;5.37;84.55
44481;BME280;30184;42.018;23.670;2023-03-26T00:32:06;90886.34;;;5.36;84.60
44481;BME280;30184;42.018;23.670;2023-03-26T00:34:36;90888.13;;;5.23;84.36
44481;BME280;30184;42.018;23.670;2023-03-26T00:37:08;90884.44;;;5.37;84.37
44481;BME280;30184;42.018;23.670;2023-03-26T00:39:40;90892.56;;;5.33;84.61
44481;BME280;30184;42.018;23.670;2023-03-26T00:42:11;90894.06;;;5.34;84.53
44481;BME280;30184;42.018;23.670;2023-03-26T00:44:41;90882.16;;;5.35;84.73
44481;BME280;30184;42.018;23.670;2023-03-26T00:47:10;90880.63;;;5.34;84.87
44481;BME280;30184;42.018;23.670;2023-03-26T00:49:40;90883.31;;;5.34;84.91
44481;BME280;30184;42.018;23.670;2023-03-26T00:52:09;90879.91;;;5.30;85.27
44481;BME280;30184;42.018;23.670;2023-03-26T00:54:40;90888.75;;;5.31;85.28
44481;BME280;30184;42.018;23.670;2023-03-26T00:57:09;90882.59;;;5.30;85.17
44481;BME280;30184;42.018;23.670;2023-03-26T00:59:42;90878.00;;;5.31;85.14
44481;BME280;30184;42.018;23.670;2023-03-26T01:02:13;90877.63;;;5.29;85.15
44481;BME280;30184;42.018;23.670;2023-03-26T01:04:45;90846.13;;;5.09;85.16
44481;BME280;30184;42.018;23.670;2023-03-26T01:07:16;90812.16;;;4.76;85.20
44481;BME280;30184;42.018;23.670;2023-03-26T01:09:50;90886.97;;;5.24;85.22
44481;BME280;30184;42.018;23.670;2023-03-26T01:12:23;90868.94;;;5.21;85.19
44481;BME280;30184;42.018;23.670;2023-03-26T01:14:55;90878.25;;;5.16;85.26
44481;BME280;30184;42.018;23.670;2023-03-26T01:17:28;90880.66;;;5.11;85.18
44481;BME280;30184;42.018;23.670;2023-03-26T01:20:07;90923.13;;;5.00;85.32
44481;BME280;30184;42.018;23.670;2023-03-26T01:22:43;90853.81;;;4.64;85.34
44481;BME280;30184;42.018;23.670;2023-03-26T01:25:15;90894.09;;;4.91;85.43
44481;BME280;30184;42.018;23.670;2023-03-26T01:27:47;90898.69;;;4.91;85.70
44481;BME280;30184;42.018;23.670;2023-03-26T01:30:22;90893.94;;;4.75;85.93
44481;BME280;30184;42.018;23.670;2023-03-26T01:32:58;90897.19;;;4.90;86.00
44481;BME280;30184;42.018;23.670;2023-03-26T01:35:36;90902.59;;;4.86;86.15
44481;BME280;30184;42.018;23.670;2023-03-26T01:38:20;90904.13;;;4.87;86.07
44481;BME280;30184;42.018;23.670;2023-03-26T01:40:58;90896.59;;;4.78;85.88
44481;BME280;30184;42.018;23.670;2023-03-26T01:43:32;90914.94;;;4.83;86.08
44481;BME280;30184;42.018;23.670;2023-03-26T01:46:06;90903.50;;;4.79;86.11
44481;BME280;30184;42.018;23.670;2023-03-26T01:48:39;90899.09;;;4.66;86.16
44481;BME280;30184;42.018;23.670;2023-03-26T01:51:10;90909.72;;;4.73;86.44
44481;BME280;30184;42.018;23.670;2023-03-26T01:53:43;90873.22;;;4.52;86.59
44481;BME280;30184;42.018;23.670;2023-03-26T01:56:17;90943.50;;;4.74;86.29
44481;BME280;30184;42.018;23.670;2023-03-26T01:58:59;90827.78;;;4.15;86.03
44481;BME280;30184;42.018;23.670;2023-03-26T02:01:38;90902.53;;;4.66;86.16
44481;BME280;30184;42.018;23.670;2023-03-26T02:04:19;90884.38;;;4.50;86.23
44481;BME280;30184;42.018;23.670;2023-03-26T02:06:53;90905.88;;;4.74;86.15
44481;BME280;30184;42.018;23.670;2023-03-26T02:09:30;90916.56;;;4.77;86.33
44481;BME280;30184;42.018;23.670;2023-03-26T02:12:05;90919.75;;;4.72;86.19
44481;BME280;30184;42.018;23.670;2023-03-26T02:14:35;90922.09;;;4.67;86.14
44481;BME280;30184;42.018;23.670;2023-03-26T02:17:04;90905.47;;;4.52;86.17
44481;BME280;30184;42.018;23.670;2023-03-26T02:19:37;90911.44;;;4.63;86.22
44481;BME280;30184;42.018;23.670;2023-03-26T02:22:08;90880.03;;;4.33;86.07
44481;BME280;30184;42.018;23.670;2023-03-26T02:24:44;90923.69;;;4.64;86.21
44481;BME280;30184;42.018;23.670;2023-03-26T02:27:15;90910.69;;;4.63;86.12
44481;BME280;30184;42.018;23.670;2023-03-26T02:29:45;90900.13;;;4.48;86.28
44481;BME280;30184;42.018;23.670;2023-03-26T02:32:20;90881.59;;;4.31;86.06
44481;BME280;30184;42.018;23.670;2023-03-26T02:34:50;90927.19;;;4.61;85.97
44481;BME280;30184;42.018;23.670;2023-03-26T02:37:20;90908.94;;;4.49;86.08
44481;BME280;30184;42.018;23.670;2023-03-26T02:39:55;90926.84;;;4.59;86.02
44481;BME280;30184;42.018;23.670;2023-03-26T02:42:31;90949.25;;;4.49;85.96
44481;BME280;30184;42.018;23.670;2023-03-26T02:45:00;90925.34;;;4.55;86.02
44481;BME280;30184;42.018;23.670;2023-03-26T02:47:48;90918.91;;;4.52;85.98
44481;BME280;30184;42.018;23.670;2023-03-26T02:50:43;90960.75;;;4.49;86.22
44481;BME280;30184;42.018;23.670;2023-03-26T02:53:36;90913.22;;;4.46;86.25
44481;BME280;30184;42.018;23.670;2023-03-26T02:56:34;90929.72;;;4.45;86.26
44481;BME280;30184;42.018;23.670;2023-03-26T02:59:31;90841.91;;;3.92;86.38
44481;BME280;30184;42.018;23.670;2023-03-26T03:02:21;90923.78;;;4.34;86.47
44481;BME280;30184;42.018;23.670;2023-03-26T03:04:53;90928.28;;;4.40;86.61
44481;BME280;30184;42.018;23.670;2023-03-26T03:07:32;90922.94;;;4.37;86.64
44481;BME280;30184;42.018;23.670;2023-03-26T03:10:06;90853.91;;;3.84;86.60
44481;BME280;30184;42.018;23.670;2023-03-26T03:12:55;90930.66;;;4.35;86.72
44481;BME280;30184;42.018;23.670;2023-03-26T03:15:26;90912.84;;;4.18;86.93
44481;BME280;30184;42.018;23.670;2023-03-26T03:17:55;90940.69;;;4.31;87.00
44481;BME280;30184;42.018;23.670;2023-03-26T03:20:28;90933.78;;;4.30;86.93
44481;BME280;30184;42.018;23.670;2023-03-26T03:22:58;90938.81;;;4.28;87.08
44481;BME280;30184;42.018;23.670;2023-03-26T03:25:29;90927.47;;;4.17;86.94
44481;BME280;30184;42.018;23.670;2023-03-26T03:28:00;90940.94;;;4.13;87.19
44481;BME280;30184;42.018;23.670;2023-03-26T03:30:30;91019.66;;;4.06;87.00
44481;BME280;30184;42.018;23.670;2023-03-26T03:33:16;90959.34;;;4.15;87.03
44481;BME280;30184;42.018;23.670;2023-03-26T03:35:47;90949.00;;;4.13;87.26
44481;BME280;30184;42.018;23.670;2023-03-26T03:38:17;90943.25;;;4.11;87.12
44481;BME280;30184;42.018;23.670;2023-03-26T03:40:49;90954.41;;;4.09;87.12
44481;BME280;30184;42.018;23.670;2023-03-26T03:43:24;90948.31;;;4.05;87.19
44481;BME280;30184;42.018;23.670;2023-03-26T03:46:12;90954.84;;;4.04;87.23
44481;BME280;30184;42.018;23.670;2023-03-26T03:48:48;90959.09;;;4.02;87.26
44481;BME280;30184;42.018;23.670;2023-03-26T03:51:26;90974.81;;;4.03;87.29
44481;BME280;30184;42.018;23.670;2023-03-26T03:53:57;90974.44;;;4.01;87.26
44481;BME280;30184;42.018;23.670;2023-03-26T03:56:52;90974.13;;;3.96;87.39
44481;BME280;30184;42.018;23.670;2023-03-26T03:59:47;90939.63;;;3.64;87.37
44481;BME280;30184;42.018;23.670;2023-03-26T04:02:19;90983.75;;;3.93;87.38
44481;BME280;30184;42.018;23.670;2023-03-26T04:04:57;90979.19;;;3.90;87.35
44481;BME280;30184;42.018;23.670;2023-03-26T04:07:28;90982.31;;;3.85;87.57
44481;BME280;30184;42.018;23.670;2023-03-26T04:10:06;90984.63;;;3.83;87.74
44481;BME280;30184;42.018;23.670;2023-03-26T04:12:54;90972.78;;;3.81;87.63
44481;BME280;30184;42.018;23.670;2023-03-26T04:15:43;90972.44;;;3.79;87.71
44481;BME280;30184;42.018;23.670;2023-03-26T04:18:14;90940.19;;;3.48;87.80
44481;BME280;30184;42.018;23.670;2023-03-26T04:20:45;90971.69;;;3.74;87.94
44481;BME280;30184;42.018;23.670;2023-03-26T04:23:21;90944.81;;;3.48;88.12
44481;BME280;30184;42.018;23.670;2023-03-26T04:26:00;90981.31;;;3.72;88.12
44481;BME280;30184;42.018;23.670;2023-03-26T04:28:56;90978.28;;;3.70;88.26
44481;BME280;30184;42.018;23.670;2023-03-26T04:31:29;90973.69;;;3.70;88.36
44481;BME280;30184;42.018;23.670;2023-03-26T04:34:06;90979.44;;;3.69;88.33
44481;BME280;30184;42.018;23.670;2023-03-26T04:37:06;90971.97;;;3.50;88.54
44481;BME280;30184;42.018;23.670;2023-03-26T04:39:42;90978.22;;;3.40;88.66
44481;BME280;30184;42.018;23.670;2023-03-26T04:42:23;90986.28;;;3.73;88.55
44481;BME280;30184;42.018;23.670;2023-03-26T04:45:10;90993.94;;;3.75;88.54
44481;BME280;30184;42.018;23.670;2023-03-26T04:47:41;90975.22;;;3.68;88.55
44481;BME280;30184;42.018;23.670;2023-03-26T04:50:14;90991.22;;;3.79;88.42
44481;BME280;30184;42.018;23.670;2023-03-26T04:52:44;90998.50;;;3.78;88.13
44481;BME280;30184;42.018;23.670;2023-03-26T04:55:24;91002.34;;;3.77;88.15
44481;BME280;30184;42.018;23.670;2023-03-26T04:58:03;91006.47;;;3.48;88.32
44481;BME280;30184;42.018;23.670;2023-03-26T05:00:56;91003.13;;;3.74;88.38
44481;BME280;30184;42.018;23.670;2023-03-26T05:03:28;91000.06;;;3.75;88.34
44481;BME280;30184;42.018;23.670;2023-03-26T05:06:09;91001.94;;;3.79;88.39
44481;BME280;30184;42.018;23.670;2023-03-26T05:08:39;91012.25;;;3.80;88.37
44481;BME280;30184;42.018;23.670;2023-03-26T05:11:16;91030.31;;;3.80;88.33
44481;BME280;30184;42.018;23.670;2023-03-26T05:13:45;90980.03;;;3.50;88.27
44481;BME280;30184;42.018;23.670;2023-03-26T05:16:14;91015.28;;;3.86;88.40
44481;BME280;30184;42.018;23.670;2023-03-26T05:18:55;91003.13;;;3.74;88.27
44481;BME280;30184;42.018;23.670;2023-03-26T05:21:31;91022.88;;;3.91;88.24
44481;BME280;30184;42.018;23.670;2023-03-26T05:24:00;91026.69;;;3.93;88.27
44481;BME280;30184;42.018;23.670;2023-03-26T05:26:30;91027.06;;;3.95;88.24
44481;BME280;30184;42.018;23.670;2023-03-26T05:28:59;91035.06;;;3.99;88.24
44481;BME280;30184;42.018;23.670;2023-03-26T05:31:35;91030.41;;;4.03;88.24
44481;BME280;30184;42.018;23.670;2023-03-26T05:34:04;91026.94;;;4.06;88.13
44481;BME280;30184;42.018;23.670;2023-03-26T05:36:36;91031.50;;;4.09;88.23
44481;BME280;30184;42.018;23.670;2023-03-26T05:39:18;91032.97;;;4.13;88.06
44481;BME280;30184;42.018;23.670;2023-03-26T05:41:56;90997.53;;;3.95;87.96
44481;BME280;30184;42.018;23.670;2023-03-26T05:44:40;90931.03;;;3.46;87.95
44481;BME280;30184;42.018;23.670;2023-03-26T05:47:18;91044.94;;;4.39;87.92
44481;BME280;30184;42.018;23.670;2023-03-26T05:49:47;91048.56;;;4.56;87.79
44481;BME280;30184;42.018;23.670;2023-03-26T05:52:18;91042.53;;;4.75;87.69
44481;BME280;30184;42.018;23.670;2023-03-26T05:55:06;91045.78;;;4.90;86.91
44481;BME280;30184;42.018;23.670;2023-03-26T05:58:14;91045.00;;;5.16;86.47
44481;BME280;30184;42.018;23.670;2023-03-26T06:01:08;91053.47;;;5.38;85.86
44481;BME280;30184;42.018;23.670;2023-03-26T06:04:02;91034.44;;;5.52;84.82
44481;BME280;30184;42.018;23.670;2023-03-26T06:06:37;91046.59;;;5.84;84.92
44481;BME280;30184;42.018;23.670;2023-03-26T06:09:08;91056.63;;;6.03;83.41
44481;BME280;30184;42.018;23.670;2023-03-26T06:11:39;91065.41;;;6.27;82.85
44481;BME280;30184;42.018;23.670;2023-03-26T06:14:08;91048.84;;;6.48;82.71
44481;BME280;30184;42.018;23.670;2023-03-26T06:16:43;90989.78;;;6.38;81.74
44481;BME280;30184;42.018;23.670;2023-03-26T06:19:18;90993.97;;;6.39;80.76
44481;BME280;30184;42.018;23.670;2023-03-26T06:22:00;91041.16;;;7.19;80.34
44481;BME280;30184;42.018;23.670;2023-03-26T06:24:51;91046.28;;;7.45;79.69
44481;BME280;30184;42.018;23.670;2023-03-26T06:27:25;91050.91;;;7.61;77.79
44481;BME280;30184;42.018;23.670;2023-03-26T06:30:20;91056.50;;;7.86;76.64
44481;BME280;30184;42.018;23.670;2023-03-26T06:33:00;91042.09;;;8.06;76.54
44481;BME280;30184;42.018;23.670;2023-03-26T06:35:36;91042.63;;;8.30;76.22
44481;BME280;30184;42.018;23.670;2023-03-26T06:38:06;91032.00;;;8.51;76.01
44481;BME280;30184;42.018;23.670;2023-03-26T06:40:37;90923.94;;;7.94;75.74
44481;BME280;30184;42.018;23.670;2023-03-26T06:43:29;91022.63;;;8.81;74.65
44481;BME280;30184;42.018;23.670;2023-03-26T06:46:35;90994.53;;;8.79;75.24
44481;BME280;30184;42.018;23.670;2023-03-26T06:49:33;91029.69;;;9.29;73.44
44481;BME280;30184;42.018;23.670;2023-03-26T06:52:32;90999.72;;;9.24;71.90
44481;BME280;30184;42.018;23.670;2023-03-26T06:55:18;90951.75;;;9.24;71.56
44481;BME280;30184;42.018;23.670;2023-03-26T06:58:01;90997.13;;;9.80;71.38
44481;BME280;30184;42.018;23.670;2023-03-26T07:00:52;91010.53;;;10.31;70.28
44481;BME280;30184;42.018;23.670;2023-03-26T07:03:40;91021.00;;;10.41;69.00
44481;BME280;30184;42.018;23.670;2023-03-26T07:06:28;91004.84;;;10.81;66.77
44481;BME280;30184;42.018;23.670;2023-03-26T07:09:02;90998.63;;;11.03;66.99
44481;BME280;30184;42.018;23.670;2023-03-26T07:11:50;91008.09;;;11.29;66.33
44481;BME280;30184;42.018;23.670;2023-03-26T07:14:56;91001.50;;;11.48;65.66
44481;BME280;30184;42.018;23.670;2023-03-26T07:18:02;91014.16;;;11.82;63.68
44481;BME280;30184;42.018;23.670;2023-03-26T07:20:34;90997.41;;;12.02;63.53
44481;BME280;30184;42.018;23.670;2023-03-26T07:23:05;90994.28;;;12.22;59.63
44481;BME280;30184;42.018;23.670;2023-03-26T07:25:52;90997.75;;;12.41;58.03
44481;BME280;30184;42.018;23.670;2023-03-26T07:28:40;90992.13;;;12.62;52.11
44481;BME280;30184;42.018;23.670;2023-03-26T07:31:28;90932.72;;;12.43;53.50
44481;BME280;30184;42.018;23.670;2023-03-26T07:34:38;90990.34;;;13.11;53.34
44481;BME280;30184;42.018;23.670;2023-03-26T07:37:34;90988.97;;;13.33;51.68
44481;BME280;30184;42.018;23.670;2023-03-26T07:40:27;90986.66;;;13.41;43.82
44481;BME280;30184;42.018;23.670;2023-03-26T07:43:32;90993.22;;;13.58;41.33
44481;BME280;30184;42.018;23.670;2023-03-26T07:46:10;90966.84;;;13.64;39.79
44481;BME280;30184;42.018;23.670;2023-03-26T07:49:02;90986.94;;;13.76;40.04
44481;BME280;30184;42.018;23.670;2023-03-26T07:51:52;90976.91;;;14.06;37.41
44481;BME280;30184;42.018;23.670;2023-03-26T07:54:33;90969.97;;;14.19;38.41
44481;BME280;30184;42.018;23.670;2023-03-26T07:57:33;90987.63;;;14.33;36.69
44481;BME280;30184;42.018;23.670;2023-03-26T08:00:31;90975.44;;;14.43;35.37
44481;BME280;30184;42.018;23.670;2023-03-26T08:03:20;90962.19;;;14.51;34.98
44481;BME280;30184;42.018;23.670;2023-03-26T08:06:17;91003.06;;;14.75;32.71
44481;BME280;30184;42.018;23.670;2023-03-26T08:09:07;90970.31;;;14.89;32.40
44481;BME280;30184;42.018;23.670;2023-03-26T08:12:11;90968.81;;;15.03;31.36
44481;BME280;30184;42.018;23.670;2023-03-26T08:14:50;90958.91;;;15.20;31.67
44481;BME280;30184;42.018;23.670;2023-03-26T08:17:28;90880.84;;;14.84;28.50
44481;BME280;30184;42.018;23.670;2023-03-26T08:20:05;90947.75;;;15.39;27.23
44481;BME280;30184;42.018;23.670;2023-03-26T08:22:41;90942.31;;;15.24;25.01
44481;BME280;30184;42.018;23.670;2023-03-26T08:25:24;90916.13;;;15.17;24.05
44481;BME280;30184;42.018;23.670;2023-03-26T08:28:03;90898.41;;;15.13;22.95
44481;BME280;30184;42.018;23.670;2023-03-26T08:30:38;90931.06;;;15.51;23.51
44481;BME280;30184;42.018;23.670;2023-03-26T08:33:13;90938.38;;;15.75;24.31
44481;BME280;30184;42.018;23.670;2023-03-26T08:35:45;90942.84;;;15.92;23.67
44481;BME280;30184;42.018;23.670;2023-03-26T08:38:19;90943.25;;;16.05;22.95
44481;BME280;30184;42.018;23.670;2023-03-26T08:50:34;90904.75;;;16.09;23.27
44481;BME280;30184;42.018;23.670;2023-03-26T08:53:20;90847.75;;;15.87;22.25
44481;BME280;30184;42.018;23.670;2023-03-26T08:56:07;90923.38;;;16.51;21.75
44481;BME280;30184;42.018;23.670;2023-03-26T09:02:20;90913.81;;;16.61;20.90
44481;BME280;30184;42.018;23.670;2023-03-26T09:05:24;90913.97;;;16.78;21.75
44481;BME280;30184;42.018;23.670;2023-03-26T09:11:55;90915.09;;;16.92;21.20
44481;BME280;30184;42.018;23.670;2023-03-26T09:14:55;90903.19;;;16.95;21.27
44481;BME280;30184;42.018;23.670;2023-03-26T09:27:34;90894.56;;;17.44;20.93
44481;BME280;30184;42.018;23.670;2023-03-26T09:30:46;90893.03;;;17.38;22.45
44481;BME280;30184;42.018;23.670;2023-03-26T09:33:30;90896.56;;;17.44;22.04
44481;BME280;30184;42.018;23.670;2023-03-26T09:36:17;90866.41;;;17.44;22.09
44481;BME280;30184;42.018;23.670;2023-03-26T09:38:52;90896.97;;;17.63;21.20
44481;BME280;30184;42.018;23.670;2023-03-26T09:41:34;90905.47;;;17.65;20.55
44481;BME280;30184;42.018;23.670;2023-03-26T09:47:26;90879.53;;;17.66;20.83
44481;BME280;30184;42.018;23.670;2023-03-26T09:50:23;90892.09;;;17.78;20.48
44481;BME280;30184;42.018;23.670;2023-03-26T09:53:06;90885.59;;;17.81;20.14
44481;BME280;30184;42.018;23.670;2023-03-26T09:55:54;90877.59;;;17.77;19.95
44481;BME280;30184;42.018;23.670;2023-03-26T09:58:50;90870.63;;;17.82;20.72
44481;BME280;30184;42.018;23.670;2023-03-26T10:01:30;90872.47;;;17.96;20.26
44481;BME280;30184;42.018;23.670;2023-03-26T10:07:09;90861.31;;;18.16;20.65
44481;BME280;30184;42.018;23.670;2023-03-26T10:09:47;90869.28;;;18.14;20.03
44481;BME280;30184;42.018;23.670;2023-03-26T10:12:30;90858.06;;;18.12;18.77
44481;BME280;30184;42.018;23.670;2023-03-26T10:15:17;90812.03;;;17.90;17.39
44481;BME280;30184;42.018;23.670;2023-03-26T10:18:11;90849.06;;;18.17;17.77
44481;BME280;30184;42.018;23.670;2023-03-26T10:20:54;90861.09;;;18.25;17.67
44481;BME280;30184;42.018;23.670;2023-03-26T10:23:37;90799.09;;;17.97;18.32
44481;BME280;30184;42.018;23.670;2023-03-26T10:26:32;90849.59;;;18.27;18.14
44481;BME280;30184;42.018;23.670;2023-03-26T10:29:19;90809.06;;;17.94;17.95
44481;BME280;30184;42.018;23.670;2023-03-26T10:32:04;90847.06;;;18.18;17.61
44481;BME280;30184;42.018;23.670;2023-03-26T10:34:47;90849.06;;;18.17;17.38
44481;BME280;30184;42.018;23.670;2023-03-26T10:37:22;90840.34;;;18.19;18.50
44481;BME280;30184;42.018;23.670;2023-03-26T10:40:18;90846.84;;;18.27;18.65
44481;BME280;30184;42.018;23.670;2023-03-26T10:43:00;90842.63;;;18.32;17.62
44481;BME280;30184;42.018;23.670;2023-03-26T10:45:58;90819.91;;;18.25;17.97
44481;BME280;30184;42.018;23.670;2023-03-26T10:48:45;90858.63;;;18.39;17.30
44481;BME280;30184;42.018;23.670;2023-03-26T10:51:34;90821.44;;;18.49;18.36
44481;BME280;30184;42.018;23.670;2023-03-26T10:54:16;90756.00;;;18.25;18.33
44481;BME280;30184;42.018;23.670;2023-03-26T10:56:50;90807.28;;;18.61;18.26
44481;BME280;30184;42.018;23.670;2023-03-26T10:59:20;90809.75;;;18.59;18.57
44481;BME280;30184;42.018;23.670;2023-03-26T11:02:02;90815.25;;;18.65;18.35
44481;BME280;30184;42.018;23.670;2023-03-26T11:04:41;90757.25;;;18.24;18.86
44481;BME280;30184;42.018;23.670;2023-03-26T11:07:20;90796.22;;;18.56;18.85
44481;BME280;30184;42.018;23.670;2023-03-26T11:09:54;90810.28;;;18.69;18.38
44481;BME280;30184;42.018;23.670;2023-03-26T11:12:32;90809.50;;;18.69;17.89
44481;BME280;30184;42.018;23.670;2023-03-26T11:15:15;90833.38;;;18.29;18.72
44481;BME280;30184;42.018;23.670;2023-03-26T11:17:56;90814.50;;;18.64;18.60
44481;BME280;30184;42.018;23.670;2023-03-26T11:20:34;90782.78;;;18.58;18.65
44481;BME280;30184;42.018;23.670;2023-03-26T11:23:25;90768.47;;;18.37;19.06
44481;BME280;30184;42.018;23.670;2023-03-26T11:26:06;90803.03;;;18.60;18.69
44481;BME280;30184;42.018;23.670;2023-03-26T11:29:10;90802.72;;;18.53;18.60
44481;BME280;30184;42.018;23.670;2023-03-26T11:31:53;90787.28;;;18.61;19.36
44481;BME280;30184;42.018;23.670;2023-03-26T11:34:29;90783.78;;;18.66;19.18
44481;BME280;30184;42.018;23.670;2023-03-26T11:37:02;90775.31;;;18.81;19.04
44481;BME280;30184;42.018;23.670;2023-03-26T11:39:41;90750.81;;;18.66;18.85
44481;BME280;30184;42.018;23.670;2023-03-26T11:42:15;90773.31;;;18.70;18.73
44481;BME280;30184;42.018;23.670;2023-03-26T11:44:50;90788.78;;;18.84;18.46
44481;BME280;30184;42.018;23.670;2023-03-26T11:47:25;90787.53;;;18.80;18.20
44481;BME280;30184;42.018;23.670;2023-03-26T11:49:58;90806.25;;;18.59;18.37
44481;BME280;30184;42.018;23.670;2023-03-26T11:52:29;90748.03;;;18.49;18.36
44481;BME280;30184;42.018;23.670;2023-03-26T11:55:00;90774.03;;;18.82;18.47
44481;BME280;30184;42.018;23.670;2023-03-26T11:57:34;90760.31;;;18.87;17.89
44481;BME280;30184;42.018;23.670;2023-03-26T12:00:12;90770.31;;;18.90;17.98
44481;BME280;30184;42.018;23.670;2023-03-26T12:02:45;90785.28;;;18.84;17.58
44481;BME280;30184;42.018;23.670;2023-03-26T12:05:18;90782.53;;;18.78;17.29
44481;BME280;30184;42.018;23.670;2023-03-26T12:07:52;90778.78;;;18.76;16.90
44481;BME280;30184;42.018;23.670;2023-03-26T12:10:42;90778.28;;;18.66;16.73
44481;BME280;30184;42.018;23.670;2023-03-26T12:13:25;90801.03;;;18.61;16.63
44481;BME280;30184;42.018;23.670;2023-03-26T12:15:57;90769.03;;;18.58;16.89
44481;BME280;30184;42.018;23.670;2023-03-26T12:18:27;90720.28;;;18.25;17.17
44481;BME280;30184;42.018;23.670;2023-03-26T12:21:02;90751.28;;;18.42;16.79
44481;BME280;30184;42.018;23.670;2023-03-26T12:23:52;90765.53;;;18.63;16.37
44481;BME280;30184;42.018;23.670;2023-03-26T12:26:35;90763.25;;;18.56;16.12
44481;BME280;30184;42.018;23.670;2023-03-26T12:29:09;90744.75;;;18.28;16.67
44481;BME280;30184;42.018;23.670;2023-03-26T12:31:44;90767.25;;;18.49;17.14
44481;BME280;30184;42.018;23.670;2023-03-26T12:34:16;90757.78;;;18.50;17.04
44481;BME280;30184;42.018;23.670;2023-03-26T12:36:54;90745.03;;;18.53;17.43
44481;BME280;30184;42.018;23.670;2023-03-26T12:39:34;90756.03;;;18.53;16.52
44481;BME280;30184;42.018;23.670;2023-03-26T12:42:24;90742.53;;;18.49;16.92
44481;BME280;30184;42.018;23.670;2023-03-26T12:44:56;90743.50;;;18.46;17.53
44481;BME280;30184;42.018;23.670;2023-03-26T12:47:31;90732.03;;;18.42;17.78
44481;BME280;30184;42.018;23.670;2023-03-26T12:50:01;90733.78;;;18.51;17.53
44481;BME280;30184;42.018;23.670;2023-03-26T12:52:54;90732.28;;;18.44;17.35
44481;BME280;30184;42.018;23.670;2023-03-26T12:55:36;90681.84;;;18.14;17.38
44481;BME280;30184;42.018;23.670;2023-03-26T12:58:26;90734.28;;;18.44;17.56
44481;BME280;30184;42.018;23.670;2023-03-26T13:01:05;90719.53;;;18.30;17.69
44481;BME280;30184;42.018;23.670;2023-03-26T13:03:57;90720.06;;;18.34;17.77
44481;BME280;30184;42.018;23.670;2023-03-26T13:06:36;90727.03;;;18.35;18.27
44481;BME280;30184;42.018;23.670;2023-03-26T13:09:26;90720.56;;;18.33;17.52
44481;BME280;30184;42.018;23.670;2023-03-26T13:12:07;90732.03;;;18.31;18.03
44481;BME280;30184;42.018;23.670;2023-03-26T13:14:56;90722.28;;;18.36;17.79
44481;BME280;30184;42.018;23.670;2023-03-26T13:17:33;90722.28;;;18.36;18.21
44481;BME280;30184;42.018;23.670;2023-03-26T13:20:08;90738.00;;;18.30;17.72
44481;BME280;30184;42.018;23.670;2023-03-26T13:22:49;90722.28;;;18.24;17.95
44481;BME280;30184;42.018;23.670;2023-03-26T13:25:32;90703.06;;;18.13;18.21
44481;BME280;30184;42.018;23.670;2023-03-26T13:28:14;90719.53;;;18.30;17.80
44481;BME280;30184;42.018;23.670;2023-03-26T13:30:55;90720.03;;;18.06;18.12
44481;BME280;30184;42.018;23.670;2023-03-26T13:33:38;90721.53;;;18.30;18.42
44481;BME280;30184;42.018;23.670;2023-03-26T13:36:15;90712.81;;;18.25;17.97
44481;BME280;30184;42.018;23.670;2023-03-26T13:38:58;90725.03;;;18.36;18.80
44481;BME280;30184;42.018;23.670;2023-03-26T13:41:41;90569.44;;;17.32;18.54
44481;BME280;30184;42.018;23.670;2023-03-26T13:44:21;90722.06;;;18.34;18.30
44481;BME280;30184;42.018;23.670;2023-03-26T13:46:59;90727.78;;;18.36;18.45
44481;BME280;30184;42.018;23.670;2023-03-26T13:49:35;90636.84;;;17.67;18.84
44481;BME280;30184;42.018;23.670;2023-03-26T13:52:09;90732.78;;;18.32;18.27
44481;BME280;30184;42.018;23.670;2023-03-26T13:54:47;90731.03;;;18.34;18.34
44481;BME280;30184;42.018;23.670;2023-03-26T13:57:21;90730.28;;;18.34;18.56
44481;BME280;30184;42.018;23.670;2023-03-26T13:59:54;90724.03;;;18.16;18.67
44481;BME280;30184;42.018;23.670;2023-03-26T14:02:32;90725.78;;;18.31;19.05
44481;BME280;30184;42.018;23.670;2023-03-26T14:05:07;90669.34;;;17.96;19.20
44481;BME280;30184;42.018;23.670;2023-03-26T14:07:43;90727.03;;;18.35;18.45
44481;BME280;30184;42.018;23.670;2023-03-26T14:10:16;90682.56;;;17.98;18.74
44481;BME280;30184;42.018;23.670;2023-03-26T14:12:53;90798.94;;;18.22;18.17
44481;BME280;30184;42.018;23.670;2023-03-26T14:15:26;90735.75;;;18.28;18.48
44481;BME280;30184;42.018;23.670;2023-03-26T14:18:05;90706.28;;;17.95;18.79
44481;BME280;30184;42.018;23.670;2023-03-26T14:20:58;90626.03;;;17.30;18.67
44481;BME280;30184;42.018;23.670;2023-03-26T14:23:54;90736.97;;;18.05;18.57
44481;BME280;30184;42.018;23.670;2023-03-26T14:26:47;90742.22;;;18.03;18.39
44481;BME280;30184;42.018;23.670;2023-03-26T14:29:51;90742.44;;;17.99;18.13
44481;BME280;30184;42.018;23.670;2023-03-26T14:32:35;90736.94;;;17.99;18.65
44481;BME280;30184;42.018;23.670;2023-03-26T14:35:18;90739.47;;;17.97;18.27